EGTR weather

Elstree Airfield
Watford, England, United Kingdom

Public forecast

Using degrees Celsius for public forecast. Weather courtesy of forecast.io.

METAR (pilot weather report)

Closest report is RAF Northolt, 7.1 nm (13.1 km) SSW. Retrieved 2019/03/22 14:12 UTC (4 minutes ago):

EGWU 221412Z 23009KT 9999 BKN015 OVC018 11/07 Q1027 WHT NOSIG

TAF (pilot weather forecast)

Closest forecast is RAF Northolt, 7.1 nm (13.1 km) SSW. Retrieved 2019/03/22 15:00 UTC (0 seconds ago):

TAF EGWU 221334Z 2215/2309 24010KT 9999 BKN018 TEMPO 2219/2224 FEW020 SCT030 PROB30 2221/2302 7000 BR TEMPO 2301/2304 SCT012 BECMG 2304/2307 BKN035